sensor_id;sensor_type;location;lat;lon;timestamp;P1;durP1;ratioP1;P2;durP2;ratioP2
7575;SDS011;3829;50.798;4.358;2024-03-08T00:00:26;26.80;;;10.67;;
7575;SDS011;3829;50.798;4.358;2024-03-08T00:02:52;26.17;;;11.37;;
7575;SDS011;3829;50.798;4.358;2024-03-08T00:05:19;27.27;;;11.53;;
7575;SDS011;3829;50.798;4.358;2024-03-08T00:07:45;23.40;;;11.97;;
7575;SDS011;3829;50.798;4.358;2024-03-08T00:10:11;19.90;;;9.67;;
7575;SDS011;3829;50.798;4.358;2024-03-08T00:12:40;24.47;;;11.20;;
7575;SDS011;3829;50.798;4.358;2024-03-08T00:15:08;20.37;;;10.50;;
7575;SDS011;3829;50.798;4.358;2024-03-08T00:17:36;24.87;;;11.57;;
7575;SDS011;3829;50.798;4.358;2024-03-08T00:20:03;25.60;;;11.40;;
7575;SDS011;3829;50.798;4.358;2024-03-08T00:22:33;18.83;;;9.37;;
7575;SDS011;3829;50.798;4.358;2024-03-08T00:24:59;17.37;;;8.07;;
7575;SDS011;3829;50.798;4.358;2024-03-08T00:27:25;27.60;;;11.87;;
7575;SDS011;3829;50.798;4.358;2024-03-08T00:29:50;26.30;;;11.77;;
7575;SDS011;3829;50.798;4.358;2024-03-08T00:32:16;19.87;;;8.13;;
7575;SDS011;3829;50.798;4.358;2024-03-08T00:34:42;18.27;;;9.13;;
7575;SDS011;3829;50.798;4.358;2024-03-08T00:37:08;26.70;;;11.30;;
7575;SDS011;3829;50.798;4.358;2024-03-08T00:39:34;24.97;;;11.13;;
7575;SDS011;3829;50.798;4.358;2024-03-08T00:41:59;23.87;;;11.83;;
7575;SDS011;3829;50.798;4.358;2024-03-08T00:44:25;24.23;;;11.50;;
7575;SDS011;3829;50.798;4.358;2024-03-08T00:46:50;23.17;;;11.63;;
7575;SDS011;3829;50.798;4.358;2024-03-08T00:49:16;27.77;;;11.60;;
7575;SDS011;3829;50.798;4.358;2024-03-08T00:51:42;27.70;;;11.20;;
7575;SDS011;3829;50.798;4.358;2024-03-08T00:54:08;19.33;;;11.27;;
7575;SDS011;3829;50.798;4.358;2024-03-08T00:56:34;25.67;;;12.03;;
7575;SDS011;3829;50.798;4.358;2024-03-08T00:59:00;23.60;;;10.40;;
7575;SDS011;3829;50.798;4.358;2024-03-08T01:01:27;30.57;;;12.27;;
7575;SDS011;3829;50.798;4.358;2024-03-08T01:03:53;28.70;;;11.37;;
7575;SDS011;3829;50.798;4.358;2024-03-08T01:06:19;25.30;;;11.90;;
7575;SDS011;3829;50.798;4.358;2024-03-08T01:08:44;22.70;;;10.17;;
7575;SDS011;3829;50.798;4.358;2024-03-08T01:11:12;21.23;;;10.63;;
7575;SDS011;3829;50.798;4.358;2024-03-08T01:13:39;25.47;;;10.93;;
7575;SDS011;3829;50.798;4.358;2024-03-08T01:16:04;31.30;;;13.13;;
7575;SDS011;3829;50.798;4.358;2024-03-08T01:18:30;23.73;;;11.47;;
7575;SDS011;3829;50.798;4.358;2024-03-08T01:20:57;24.40;;;10.67;;
7575;SDS011;3829;50.798;4.358;2024-03-08T01:23:22;25.30;;;11.63;;
7575;SDS011;3829;50.798;4.358;2024-03-08T01:25:48;10.97;;;6.53;;
7575;SDS011;3829;50.798;4.358;2024-03-08T01:28:15;21.53;;;8.97;;
7575;SDS011;3829;50.798;4.358;2024-03-08T01:30:40;24.17;;;12.27;;
7575;SDS011;3829;50.798;4.358;2024-03-08T01:33:07;26.80;;;12.27;;
7575;SDS011;3829;50.798;4.358;2024-03-08T01:35:33;28.10;;;12.87;;
7575;SDS011;3829;50.798;4.358;2024-03-08T01:37:59;33.67;;;13.50;;
7575;SDS011;3829;50.798;4.358;2024-03-08T01:40:25;26.17;;;13.27;;
7575;SDS011;3829;50.798;4.358;2024-03-08T01:42:50;24.87;;;12.17;;
7575;SDS011;3829;50.798;4.358;2024-03-08T01:45:16;19.47;;;10.60;;
7575;SDS011;3829;50.798;4.358;2024-03-08T01:47:41;21.23;;;9.80;;
7575;SDS011;3829;50.798;4.358;2024-03-08T01:50:07;29.23;;;13.67;;
7575;SDS011;3829;50.798;4.358;2024-03-08T01:52:33;29.93;;;14.00;;
7575;SDS011;3829;50.798;4.358;2024-03-08T01:55:01;18.77;;;9.47;;
7575;SDS011;3829;50.798;4.358;2024-03-08T01:57:31;24.60;;;11.10;;
7575;SDS011;3829;50.798;4.358;2024-03-08T01:59:58;27.77;;;12.77;;
7575;SDS011;3829;50.798;4.358;2024-03-08T02:02:28;22.67;;;11.07;;
7575;SDS011;3829;50.798;4.358;2024-03-08T02:04:56;29.27;;;12.73;;
7575;SDS011;3829;50.798;4.358;2024-03-08T02:07:22;25.00;;;12.90;;
7575;SDS011;3829;50.798;4.358;2024-03-08T02:09:49;21.10;;;11.63;;
7575;SDS011;3829;50.798;4.358;2024-03-08T02:12:15;26.03;;;13.17;;
7575;SDS011;3829;50.798;4.358;2024-03-08T02:14:40;27.40;;;13.60;;
7575;SDS011;3829;50.798;4.358;2024-03-08T02:17:06;24.37;;;12.20;;
7575;SDS011;3829;50.798;4.358;2024-03-08T02:19:32;34.30;;;13.70;;
7575;SDS011;3829;50.798;4.358;2024-03-08T02:21:58;28.37;;;12.27;;
7575;SDS011;3829;50.798;4.358;2024-03-08T02:24:24;29.30;;;13.97;;
7575;SDS011;3829;50.798;4.358;2024-03-08T02:26:50;26.20;;;12.77;;
7575;SDS011;3829;50.798;4.358;2024-03-08T02:29:16;25.33;;;10.23;;
7575;SDS011;3829;50.798;4.358;2024-03-08T02:31:42;27.20;;;12.77;;
7575;SDS011;3829;50.798;4.358;2024-03-08T02:34:07;27.27;;;14.10;;
7575;SDS011;3829;50.798;4.358;2024-03-08T02:36:34;26.93;;;13.03;;
7575;SDS011;3829;50.798;4.358;2024-03-08T02:39:01;25.90;;;12.67;;
7575;SDS011;3829;50.798;4.358;2024-03-08T02:41:27;14.00;;;7.80;;
7575;SDS011;3829;50.798;4.358;2024-03-08T02:43:53;24.67;;;12.83;;
7575;SDS011;3829;50.798;4.358;2024-03-08T02:46:20;29.87;;;14.50;;
7575;SDS011;3829;50.798;4.358;2024-03-08T02:48:45;30.83;;;14.97;;
7575;SDS011;3829;50.798;4.358;2024-03-08T02:51:11;28.57;;;14.73;;
7575;SDS011;3829;50.798;4.358;2024-03-08T02:53:38;29.90;;;14.63;;
7575;SDS011;3829;50.798;4.358;2024-03-08T02:56:04;23.07;;;11.53;;
7575;SDS011;3829;50.798;4.358;2024-03-08T02:58:33;27.13;;;13.67;;
7575;SDS011;3829;50.798;4.358;2024-03-08T03:00:59;28.87;;;14.43;;
7575;SDS011;3829;50.798;4.358;2024-03-08T03:03:24;31.57;;;15.80;;
7575;SDS011;3829;50.798;4.358;2024-03-08T03:05:51;25.57;;;14.30;;
7575;SDS011;3829;50.798;4.358;2024-03-08T03:08:20;29.47;;;14.77;;
7575;SDS011;3829;50.798;4.358;2024-03-08T03:10:46;16.07;;;8.13;;
7575;SDS011;3829;50.798;4.358;2024-03-08T03:13:12;26.83;;;13.23;;
7575;SDS011;3829;50.798;4.358;2024-03-08T03:15:39;26.13;;;14.30;;
7575;SDS011;3829;50.798;4.358;2024-03-08T03:18:06;21.93;;;10.87;;
7575;SDS011;3829;50.798;4.358;2024-03-08T03:20:32;33.53;;;15.73;;
7575;SDS011;3829;50.798;4.358;2024-03-08T03:23:02;27.37;;;13.20;;
7575;SDS011;3829;50.798;4.358;2024-03-08T03:25:28;21.80;;;11.70;;
7575;SDS011;3829;50.798;4.358;2024-03-08T03:27:58;33.23;;;15.13;;
7575;SDS011;3829;50.798;4.358;2024-03-08T03:30:24;33.80;;;16.07;;
7575;SDS011;3829;50.798;4.358;2024-03-08T03:32:52;31.73;;;14.93;;
7575;SDS011;3829;50.798;4.358;2024-03-08T03:35:19;31.97;;;16.80;;
7575;SDS011;3829;50.798;4.358;2024-03-08T03:37:46;23.90;;;12.00;;
7575;SDS011;3829;50.798;4.358;2024-03-08T03:40:22;33.43;;;17.23;;
7575;SDS011;3829;50.798;4.358;2024-03-08T03:42:50;33.63;;;17.33;;
7575;SDS011;3829;50.798;4.358;2024-03-08T03:45:15;32.83;;;15.83;;
7575;SDS011;3829;50.798;4.358;2024-03-08T03:47:44;34.20;;;15.37;;
7575;SDS011;3829;50.798;4.358;2024-03-08T03:50:10;33.37;;;17.23;;
7575;SDS011;3829;50.798;4.358;2024-03-08T03:52:36;29.23;;;17.30;;
7575;SDS011;3829;50.798;4.358;2024-03-08T03:55:01;30.23;;;15.50;;
7575;SDS011;3829;50.798;4.358;2024-03-08T03:57:29;29.67;;;15.67;;
7575;SDS011;3829;50.798;4.358;2024-03-08T03:59:55;33.50;;;16.57;;
7575;SDS011;3829;50.798;4.358;2024-03-08T04:02:22;35.50;;;15.40;;
7575;SDS011;3829;50.798;4.358;2024-03-08T04:04:47;30.27;;;15.67;;
7575;SDS011;3829;50.798;4.358;2024-03-08T04:07:14;31.87;;;15.53;;
7575;SDS011;3829;50.798;4.358;2024-03-08T04:09:39;28.67;;;13.60;;
7575;SDS011;3829;50.798;4.358;2024-03-08T04:12:05;30.53;;;16.43;;
7575;SDS011;3829;50.798;4.358;2024-03-08T04:14:31;24.20;;;13.00;;
7575;SDS011;3829;50.798;4.358;2024-03-08T04:16:56;26.67;;;13.90;;
7575;SDS011;3829;50.798;4.358;2024-03-08T04:19:22;21.17;;;11.40;;
7575;SDS011;3829;50.798;4.358;2024-03-08T04:21:49;36.53;;;17.20;;
7575;SDS011;3829;50.798;4.358;2024-03-08T04:24:14;34.50;;;16.03;;
7575;SDS011;3829;50.798;4.358;2024-03-08T04:26:42;36.43;;;15.73;;
7575;SDS011;3829;50.798;4.358;2024-03-08T04:29:07;31.43;;;15.97;;
7575;SDS011;3829;50.798;4.358;2024-03-08T04:31:33;24.73;;;13.63;;
7575;SDS011;3829;50.798;4.358;2024-03-08T04:33:58;20.93;;;9.23;;
7575;SDS011;3829;50.798;4.358;2024-03-08T04:36:24;33.30;;;15.00;;
7575;SDS011;3829;50.798;4.358;2024-03-08T04:38:50;28.83;;;13.63;;
7575;SDS011;3829;50.798;4.358;2024-03-08T04:41:16;32.80;;;15.30;;
7575;SDS011;3829;50.798;4.358;2024-03-08T04:43:42;29.07;;;15.27;;
7575;SDS011;3829;50.798;4.358;2024-03-08T04:46:08;30.03;;;14.23;;
7575;SDS011;3829;50.798;4.358;2024-03-08T04:48:33;28.10;;;14.43;;
7575;SDS011;3829;50.798;4.358;2024-03-08T04:51:01;18.50;;;11.03;;
7575;SDS011;3829;50.798;4.358;2024-03-08T04:53:28;35.20;;;14.90;;
7575;SDS011;3829;50.798;4.358;2024-03-08T04:55:54;33.27;;;16.33;;
7575;SDS011;3829;50.798;4.358;2024-03-08T04:58:22;29.73;;;16.97;;
7575;SDS011;3829;50.798;4.358;2024-03-08T05:00:48;27.07;;;13.57;;
7575;SDS011;3829;50.798;4.358;2024-03-08T05:03:14;27.27;;;14.27;;
7575;SDS011;3829;50.798;4.358;2024-03-08T05:05:39;32.77;;;16.80;;
7575;SDS011;3829;50.798;4.358;2024-03-08T05:08:05;22.10;;;12.63;;
7575;SDS011;3829;50.798;4.358;2024-03-08T05:10:31;33.10;;;17.03;;
7575;SDS011;3829;50.798;4.358;2024-03-08T05:12:57;34.77;;;17.10;;
7575;SDS011;3829;50.798;4.358;2024-03-08T05:15:23;33.67;;;16.03;;
7575;SDS011;3829;50.798;4.358;2024-03-08T05:17:48;28.33;;;15.03;;
7575;SDS011;3829;50.798;4.358;2024-03-08T05:20:14;32.93;;;13.17;;
7575;SDS011;3829;50.798;4.358;2024-03-08T05:22:42;30.30;;;15.80;;
7575;SDS011;3829;50.798;4.358;2024-03-08T05:25:08;29.37;;;12.40;;
7575;SDS011;3829;50.798;4.358;2024-03-08T05:27:34;25.90;;;14.70;;
7575;SDS011;3829;50.798;4.358;2024-03-08T05:30:01;31.07;;;16.27;;
7575;SDS011;3829;50.798;4.358;2024-03-08T05:32:29;32.93;;;16.13;;
7575;SDS011;3829;50.798;4.358;2024-03-08T05:34:54;34.17;;;16.83;;
7575;SDS011;3829;50.798;4.358;2024-03-08T05:37:20;35.97;;;16.57;;
7575;SDS011;3829;50.798;4.358;2024-03-08T05:39:45;33.50;;;15.17;;
7575;SDS011;3829;50.798;4.358;2024-03-08T05:42:11;34.03;;;15.43;;
7575;SDS011;3829;50.798;4.358;2024-03-08T05:44:36;37.80;;;16.20;;
7575;SDS011;3829;50.798;4.358;2024-03-08T05:47:02;31.50;;;16.73;;
7575;SDS011;3829;50.798;4.358;2024-03-08T05:49:28;39.00;;;17.07;;
7575;SDS011;3829;50.798;4.358;2024-03-08T05:51:53;30.07;;;14.60;;
7575;SDS011;3829;50.798;4.358;2024-03-08T05:54:19;24.73;;;9.70;;
7575;SDS011;3829;50.798;4.358;2024-03-08T05:56:47;32.50;;;17.07;;
7575;SDS011;3829;50.798;4.358;2024-03-08T05:59:13;33.40;;;15.83;;
7575;SDS011;3829;50.798;4.358;2024-03-08T06:01:38;35.90;;;15.80;;
7575;SDS011;3829;50.798;4.358;2024-03-08T06:04:06;29.10;;;16.17;;
7575;SDS011;3829;50.798;4.358;2024-03-08T06:06:32;34.93;;;17.40;;
7575;SDS011;3829;50.798;4.358;2024-03-08T06:08:58;36.50;;;16.90;;
7575;SDS011;3829;50.798;4.358;2024-03-08T06:11:24;35.07;;;15.93;;
7575;SDS011;3829;50.798;4.358;2024-03-08T06:13:55;35.43;;;16.33;;
7575;SDS011;3829;50.798;4.358;2024-03-08T06:16:24;29.30;;;15.03;;
7575;SDS011;3829;50.798;4.358;2024-03-08T06:18:54;35.23;;;17.37;;
7575;SDS011;3829;50.798;4.358;2024-03-08T06:21:23;25.83;;;14.47;;
7575;SDS011;3829;50.798;4.358;2024-03-08T06:23:52;32.50;;;15.83;;
7575;SDS011;3829;50.798;4.358;2024-03-08T06:26:19;28.93;;;14.17;;
7575;SDS011;3829;50.798;4.358;2024-03-08T06:28:46;31.20;;;15.30;;
7575;SDS011;3829;50.798;4.358;2024-03-08T06:31:12;30.53;;;14.67;;
7575;SDS011;3829;50.798;4.358;2024-03-08T06:33:39;38.27;;;16.20;;
7575;SDS011;3829;50.798;4.358;2024-03-08T06:36:05;33.77;;;16.87;;
7575;SDS011;3829;50.798;4.358;2024-03-08T06:38:30;34.77;;;16.50;;
7575;SDS011;3829;50.798;4.358;2024-03-08T06:40:56;31.83;;;15.87;;
7575;SDS011;3829;50.798;4.358;2024-03-08T06:43:22;31.47;;;14.07;;
7575;SDS011;3829;50.798;4.358;2024-03-08T06:45:50;33.47;;;15.73;;
7575;SDS011;3829;50.798;4.358;2024-03-08T06:48:15;27.80;;;13.10;;
7575;SDS011;3829;50.798;4.358;2024-03-08T06:50:42;19.40;;;7.53;;
7575;SDS011;3829;50.798;4.358;2024-03-08T06:53:09;33.07;;;15.10;;
7575;SDS011;3829;50.798;4.358;2024-03-08T06:55:34;22.93;;;12.47;;
7575;SDS011;3829;50.798;4.358;2024-03-08T06:58:00;23.37;;;11.57;;
7575;SDS011;3829;50.798;4.358;2024-03-08T07:00:26;30.00;;;14.83;;
7575;SDS011;3829;50.798;4.358;2024-03-08T07:02:53;29.60;;;14.20;;
7575;SDS011;3829;50.798;4.358;2024-03-08T07:05:19;33.47;;;16.23;;
7575;SDS011;3829;50.798;4.358;2024-03-08T07:07:45;34.83;;;16.17;;
7575;SDS011;3829;50.798;4.358;2024-03-08T07:10:14;24.70;;;12.67;;
7575;SDS011;3829;50.798;4.358;2024-03-08T07:12:46;32.63;;;16.93;;
7575;SDS011;3829;50.798;4.358;2024-03-08T07:15:14;31.67;;;15.83;;
7575;SDS011;3829;50.798;4.358;2024-03-08T07:17:49;14.13;;;7.00;;
7575;SDS011;3829;50.798;4.358;2024-03-08T07:20:21;23.57;;;11.33;;
7575;SDS011;3829;50.798;4.358;2024-03-08T07:22:51;30.83;;;15.90;;
7575;SDS011;3829;50.798;4.358;2024-03-08T07:25:18;17.07;;;8.27;;
7575;SDS011;3829;50.798;4.358;2024-03-08T07:27:47;29.00;;;15.97;;
7575;SDS011;3829;50.798;4.358;2024-03-08T07:30:13;30.97;;;15.50;;
7575;SDS011;3829;50.798;4.358;2024-03-08T07:32:49;25.50;;;10.40;;
7575;SDS011;3829;50.798;4.358;2024-03-08T07:35:15;23.90;;;12.87;;
7575;SDS011;3829;50.798;4.358;2024-03-08T07:37:43;30.13;;;16.30;;
7575;SDS011;3829;50.798;4.358;2024-03-08T07:40:09;29.63;;;14.60;;
7575;SDS011;3829;50.798;4.358;2024-03-08T07:42:35;35.07;;;15.03;;
7575;SDS011;3829;50.798;4.358;2024-03-08T07:45:01;33.60;;;14.33;;
7575;SDS011;3829;50.798;4.358;2024-03-08T07:47:26;31.13;;;14.07;;
7575;SDS011;3829;50.798;4.358;2024-03-08T07:49:52;32.17;;;15.27;;
7575;SDS011;3829;50.798;4.358;2024-03-08T07:52:19;37.47;;;16.10;;
7575;SDS011;3829;50.798;4.358;2024-03-08T07:54:44;27.03;;;14.33;;
7575;SDS011;3829;50.798;4.358;2024-03-08T07:57:10;29.50;;;13.00;;
7575;SDS011;3829;50.798;4.358;2024-03-08T07:59:35;29.90;;;16.00;;
7575;SDS011;3829;50.798;4.358;2024-03-08T08:02:01;27.17;;;14.23;;
7575;SDS011;3829;50.798;4.358;2024-03-08T08:04:26;30.40;;;15.33;;
7575;SDS011;3829;50.798;4.358;2024-03-08T08:06:52;30.27;;;12.73;;
7575;SDS011;3829;50.798;4.358;2024-03-08T08:09:20;29.13;;;14.83;;
7575;SDS011;3829;50.798;4.358;2024-03-08T08:11:54;28.90;;;13.87;;
7575;SDS011;3829;50.798;4.358;2024-03-08T08:14:20;25.13;;;11.40;;
7575;SDS011;3829;50.798;4.358;2024-03-08T08:16:46;18.67;;;10.63;;
7575;SDS011;3829;50.798;4.358;2024-03-08T08:19:13;34.30;;;14.27;;
7575;SDS011;3829;50.798;4.358;2024-03-08T08:21:40;18.83;;;10.40;;
7575;SDS011;3829;50.798;4.358;2024-03-08T08:24:06;22.83;;;12.20;;
7575;SDS011;3829;50.798;4.358;2024-03-08T08:26:32;30.80;;;12.93;;
7575;SDS011;3829;50.798;4.358;2024-03-08T08:29:01;27.17;;;12.87;;
7575;SDS011;3829;50.798;4.358;2024-03-08T08:31:26;20.40;;;10.57;;
7575;SDS011;3829;50.798;4.358;2024-03-08T08:33:52;15.13;;;8.87;;
7575;SDS011;3829;50.798;4.358;2024-03-08T08:36:23;19.90;;;9.83;;
7575;SDS011;3829;50.798;4.358;2024-03-08T08:38:49;26.40;;;13.10;;
7575;SDS011;3829;50.798;4.358;2024-03-08T08:41:15;30.10;;;15.57;;
7575;SDS011;3829;50.798;4.358;2024-03-08T08:43:42;27.13;;;14.73;;
7575;SDS011;3829;50.798;4.358;2024-03-08T08:46:09;19.27;;;9.43;;
7575;SDS011;3829;50.798;4.358;2024-03-08T08:48:38;27.93;;;11.63;;
7575;SDS011;3829;50.798;4.358;2024-03-08T08:51:06;22.77;;;12.60;;
7575;SDS011;3829;50.798;4.358;2024-03-08T08:53:37;25.83;;;13.13;;
7575;SDS011;3829;50.798;4.358;2024-03-08T08:56:07;20.17;;;8.97;;
7575;SDS011;3829;50.798;4.358;2024-03-08T08:58:33;29.10;;;14.20;;
7575;SDS011;3829;50.798;4.358;2024-03-08T09:00:59;21.30;;;11.83;;
7575;SDS011;3829;50.798;4.358;2024-03-08T09:03:25;22.30;;;11.57;;
7575;SDS011;3829;50.798;4.358;2024-03-08T09:05:52;27.13;;;13.17;;
7575;SDS011;3829;50.798;4.358;2024-03-08T09:08:18;25.07;;;12.97;;
7575;SDS011;3829;50.798;4.358;2024-03-08T09:10:44;18.97;;;10.73;;
7575;SDS011;3829;50.798;4.358;2024-03-08T09:13:09;23.60;;;11.77;;
7575;SDS011;3829;50.798;4.358;2024-03-08T09:15:36;19.53;;;10.07;;
7575;SDS011;3829;50.798;4.358;2024-03-08T09:18:03;20.23;;;8.73;;
7575;SDS011;3829;50.798;4.358;2024-03-08T09:20:31;20.63;;;12.70;;
7575;SDS011;3829;50.798;4.358;2024-03-08T09:22:57;25.10;;;12.50;;
7575;SDS011;3829;50.798;4.358;2024-03-08T09:25:22;20.43;;;10.93;;
7575;SDS011;3829;50.798;4.358;2024-03-08T09:27:48;22.60;;;12.27;;
7575;SDS011;3829;50.798;4.358;2024-03-08T09:30:14;15.70;;;8.30;;
7575;SDS011;3829;50.798;4.358;2024-03-08T09:32:40;25.77;;;13.03;;
7575;SDS011;3829;50.798;4.358;2024-03-08T09:35:06;18.87;;;9.03;;
7575;SDS011;3829;50.798;4.358;2024-03-08T09:37:33;17.27;;;7.77;;
7575;SDS011;3829;50.798;4.358;2024-03-08T09:39:59;27.03;;;11.57;;
7575;SDS011;3829;50.798;4.358;2024-03-08T09:42:25;24.53;;;12.83;;
7575;SDS011;3829;50.798;4.358;2024-03-08T09:44:51;21.60;;;10.63;;
7575;SDS011;3829;50.798;4.358;2024-03-08T09:47:17;27.47;;;13.07;;
7575;SDS011;3829;50.798;4.358;2024-03-08T09:49:43;18.27;;;9.73;;
7575;SDS011;3829;50.798;4.358;2024-03-08T09:52:09;23.77;;;13.30;;
7575;SDS011;3829;50.798;4.358;2024-03-08T09:54:37;20.67;;;11.23;;
7575;SDS011;3829;50.798;4.358;2024-03-08T09:57:04;21.13;;;11.03;;
7575;SDS011;3829;50.798;4.358;2024-03-08T09:59:33;22.27;;;11.97;;
7575;SDS011;3829;50.798;4.358;2024-03-08T10:02:12;23.47;;;13.50;;
7575;SDS011;3829;50.798;4.358;2024-03-08T10:04:40;22.60;;;11.87;;
7575;SDS011;3829;50.798;4.358;2024-03-08T10:07:14;26.17;;;12.87;;
7575;SDS011;3829;50.798;4.358;2024-03-08T10:09:40;17.53;;;9.73;;
7575;SDS011;3829;50.798;4.358;2024-03-08T10:12:12;20.33;;;11.70;;
7575;SDS011;3829;50.798;4.358;2024-03-08T10:14:38;24.10;;;12.23;;
7575;SDS011;3829;50.798;4.358;2024-03-08T10:17:05;25.67;;;13.43;;
7575;SDS011;3829;50.798;4.358;2024-03-08T10:19:30;21.50;;;10.70;;
7575;SDS011;3829;50.798;4.358;2024-03-08T10:21:56;26.23;;;13.50;;
7575;SDS011;3829;50.798;4.358;2024-03-08T10:24:23;23.60;;;11.40;;
7575;SDS011;3829;50.798;4.358;2024-03-08T10:26:53;25.10;;;12.83;;
7575;SDS011;3829;50.798;4.358;2024-03-08T10:29:23;21.77;;;12.00;;
7575;SDS011;3829;50.798;4.358;2024-03-08T10:31:49;14.20;;;7.77;;
7575;SDS011;3829;50.798;4.358;2024-03-08T10:34:16;27.00;;;11.47;;
7575;SDS011;3829;50.798;4.358;2024-03-08T10:36:42;18.40;;;10.33;;
7575;SDS011;3829;50.798;4.358;2024-03-08T10:39:14;24.33;;;13.30;;
7575;SDS011;3829;50.798;4.358;2024-03-08T10:41:51;18.17;;;9.50;;
7575;SDS011;3829;50.798;4.358;2024-03-08T10:47:18;18.53;;;8.03;;
7575;SDS011;3829;50.798;4.358;2024-03-08T10:49:51;19.50;;;11.60;;
7575;SDS011;3829;50.798;4.358;2024-03-08T10:52:20;20.97;;;12.20;;
7575;SDS011;3829;50.798;4.358;2024-03-08T10:54:47;24.47;;;13.20;;
7575;SDS011;3829;50.798;4.358;2024-03-08T10:57:14;17.13;;;8.97;;
7575;SDS011;3829;50.798;4.358;2024-03-08T10:59:44;21.53;;;12.07;;
7575;SDS011;3829;50.798;4.358;2024-03-08T11:02:11;20.43;;;10.50;;
7575;SDS011;3829;50.798;4.358;2024-03-08T11:04:37;20.40;;;11.97;;
7575;SDS011;3829;50.798;4.358;2024-03-08T11:07:03;24.27;;;13.70;;
7575;SDS011;3829;50.798;4.358;2024-03-08T11:09:33;21.77;;;10.63;;
7575;SDS011;3829;50.798;4.358;2024-03-08T11:14:47;13.30;;;7.53;;
7575;SDS011;3829;50.798;4.358;2024-03-08T11:17:15;19.63;;;11.13;;
7575;SDS011;3829;50.798;4.358;2024-03-08T11:19:52;22.77;;;13.63;;
7575;SDS011;3829;50.798;4.358;2024-03-08T11:22:21;16.73;;;8.83;;
7575;SDS011;3829;50.798;4.358;2024-03-08T11:24:49;19.37;;;10.80;;
7575;SDS011;3829;50.798;4.358;2024-03-08T11:27:15;21.10;;;11.50;;
7575;SDS011;3829;50.798;4.358;2024-03-08T11:29:40;20.57;;;11.53;;
7575;SDS011;3829;50.798;4.358;2024-03-08T11:32:07;18.57;;;9.87;;
7575;SDS011;3829;50.798;4.358;2024-03-08T11:34:35;21.80;;;11.50;;
7575;SDS011;3829;50.798;4.358;2024-03-08T11:37:04;22.80;;;11.40;;
7575;SDS011;3829;50.798;4.358;2024-03-08T11:39:37;23.03;;;12.80;;
7575;SDS011;3829;50.798;4.358;2024-03-08T11:42:05;16.77;;;9.63;;
7575;SDS011;3829;50.798;4.358;2024-03-08T11:44:31;18.03;;;11.33;;
7575;SDS011;3829;50.798;4.358;2024-03-08T11:46:57;19.53;;;11.17;;
7575;SDS011;3829;50.798;4.358;2024-03-08T11:49:23;14.07;;;8.30;;
7575;SDS011;3829;50.798;4.358;2024-03-08T11:51:51;22.30;;;10.27;;
7575;SDS011;3829;50.798;4.358;2024-03-08T11:54:17;24.10;;;11.90;;
7575;SDS011;3829;50.798;4.358;2024-03-08T11:56:44;21.40;;;10.07;;
7575;SDS011;3829;50.798;4.358;2024-03-08T11:59:12;21.30;;;11.90;;
7575;SDS011;3829;50.798;4.358;2024-03-08T12:01:38;17.43;;;10.33;;
7575;SDS011;3829;50.798;4.358;2024-03-08T12:04:04;14.00;;;6.70;;
7575;SDS011;3829;50.798;4.358;2024-03-08T12:06:39;19.50;;;12.00;;
7575;SDS011;3829;50.798;4.358;2024-03-08T12:09:09;21.73;;;11.90;;
7575;SDS011;3829;50.798;4.358;2024-03-08T12:11:35;23.17;;;12.30;;
7575;SDS011;3829;50.798;4.358;2024-03-08T12:14:02;18.07;;;10.23;;
7575;SDS011;3829;50.798;4.358;2024-03-08T12:16:28;18.83;;;10.67;;
7575;SDS011;3829;50.798;4.358;2024-03-08T12:18:53;21.00;;;11.00;;
7575;SDS011;3829;50.798;4.358;2024-03-08T12:21:20;20.77;;;11.10;;
7575;SDS011;3829;50.798;4.358;2024-03-08T12:23:47;18.10;;;10.17;;
7575;SDS011;3829;50.798;4.358;2024-03-08T12:26:16;18.40;;;10.30;;
7575;SDS011;3829;50.798;4.358;2024-03-08T12:28:49;16.23;;;9.97;;
7575;SDS011;3829;50.798;4.358;2024-03-08T12:31:16;16.93;;;9.07;;
7575;SDS011;3829;50.798;4.358;2024-03-08T12:33:50;19.07;;;10.30;;
7575;SDS011;3829;50.798;4.358;2024-03-08T12:36:23;19.70;;;9.33;;
7575;SDS011;3829;50.798;4.358;2024-03-08T12:38:50;16.57;;;10.07;;
7575;SDS011;3829;50.798;4.358;2024-03-08T12:41:17;20.23;;;11.43;;
7575;SDS011;3829;50.798;4.358;2024-03-08T12:43:45;17.63;;;8.87;;
7575;SDS011;3829;50.798;4.358;2024-03-08T12:46:14;18.07;;;11.20;;
7575;SDS011;3829;50.798;4.358;2024-03-08T12:48:40;21.23;;;11.87;;
7575;SDS011;3829;50.798;4.358;2024-03-08T12:51:06;12.40;;;7.90;;
7575;SDS011;3829;50.798;4.358;2024-03-08T12:53:32;17.17;;;9.73;;
7575;SDS011;3829;50.798;4.358;2024-03-08T12:55:58;17.13;;;10.40;;
7575;SDS011;3829;50.798;4.358;2024-03-08T12:58:24;18.03;;;11.27;;
7575;SDS011;3829;50.798;4.358;2024-03-08T13:00:51;14.80;;;8.80;;
7575;SDS011;3829;50.798;4.358;2024-03-08T13:03:16;21.80;;;10.50;;
7575;SDS011;3829;50.798;4.358;2024-03-08T13:05:42;19.43;;;9.50;;
7575;SDS011;3829;50.798;4.358;2024-03-08T13:08:08;16.40;;;9.47;;
7575;SDS011;3829;50.798;4.358;2024-03-08T13:10:39;20.03;;;11.47;;
7575;SDS011;3829;50.798;4.358;2024-03-08T13:13:05;21.43;;;11.00;;
7575;SDS011;3829;50.798;4.358;2024-03-08T13:15:30;18.73;;;10.37;;
7575;SDS011;3829;50.798;4.358;2024-03-08T13:17:56;20.03;;;11.17;;
7575;SDS011;3829;50.798;4.358;2024-03-08T13:20:25;13.97;;;8.33;;
7575;SDS011;3829;50.798;4.358;2024-03-08T13:22:53;18.03;;;11.03;;
7575;SDS011;3829;50.798;4.358;2024-03-08T13:25:19;14.13;;;7.93;;
7575;SDS011;3829;50.798;4.358;2024-03-08T13:27:45;16.87;;;6.73;;
7575;SDS011;3829;50.798;4.358;2024-03-08T13:30:11;15.93;;;9.80;;
7575;SDS011;3829;50.798;4.358;2024-03-08T13:32:39;17.60;;;10.10;;
7575;SDS011;3829;50.798;4.358;2024-03-08T13:35:08;18.23;;;10.77;;
7575;SDS011;3829;50.798;4.358;2024-03-08T13:37:38;19.80;;;11.13;;
7575;SDS011;3829;50.798;4.358;2024-03-08T13:40:05;20.53;;;10.03;;
7575;SDS011;3829;50.798;4.358;2024-03-08T13:42:35;17.00;;;10.87;;
7575;SDS011;3829;50.798;4.358;2024-03-08T13:45:03;15.50;;;8.73;;
7575;SDS011;3829;50.798;4.358;2024-03-08T13:47:32;16.77;;;10.23;;
7575;SDS011;3829;50.798;4.358;2024-03-08T13:49:59;16.60;;;9.43;;
7575;SDS011;3829;50.798;4.358;2024-03-08T13:52:25;16.27;;;9.17;;
7575;SDS011;3829;50.798;4.358;2024-03-08T13:54:54;16.77;;;9.37;;
7575;SDS011;3829;50.798;4.358;2024-03-08T13:57:20;14.40;;;7.97;;
7575;SDS011;3829;50.798;4.358;2024-03-08T13:59:46;17.43;;;9.93;;
7575;SDS011;3829;50.798;4.358;2024-03-08T14:02:12;18.33;;;9.53;;
7575;SDS011;3829;50.798;4.358;2024-03-08T14:04:38;13.97;;;8.77;;
7575;SDS011;3829;50.798;4.358;2024-03-08T14:07:06;19.40;;;10.23;;
7575;SDS011;3829;50.798;4.358;2024-03-08T14:09:33;16.13;;;9.17;;
7575;SDS011;3829;50.798;4.358;2024-03-08T14:12:02;17.87;;;9.90;;
7575;SDS011;3829;50.798;4.358;2024-03-08T14:14:32;13.63;;;8.07;;
7575;SDS011;3829;50.798;4.358;2024-03-08T14:17:00;16.60;;;8.00;;
7575;SDS011;3829;50.798;4.358;2024-03-08T14:19:27;12.07;;;6.10;;
7575;SDS011;3829;50.798;4.358;2024-03-08T14:21:53;20.57;;;6.83;;
7575;SDS011;3829;50.798;4.358;2024-03-08T14:24:19;16.87;;;8.87;;
7575;SDS011;3829;50.798;4.358;2024-03-08T14:26:45;14.03;;;7.73;;
7575;SDS011;3829;50.798;4.358;2024-03-08T14:29:13;16.43;;;9.00;;
7575;SDS011;3829;50.798;4.358;2024-03-08T14:31:39;14.53;;;7.73;;
7575;SDS011;3829;50.798;4.358;2024-03-08T14:34:06;14.87;;;9.20;;
7575;SDS011;3829;50.798;4.358;2024-03-08T14:36:32;14.90;;;8.53;;
7575;SDS011;3829;50.798;4.358;2024-03-08T14:38:58;13.17;;;6.60;;
7575;SDS011;3829;50.798;4.358;2024-03-08T14:41:23;15.23;;;8.30;;
7575;SDS011;3829;50.798;4.358;2024-03-08T14:43:49;12.80;;;8.00;;
7575;SDS011;3829;50.798;4.358;2024-03-08T14:46:17;13.07;;;7.57;;
7575;SDS011;3829;50.798;4.358;2024-03-08T14:48:46;15.63;;;8.07;;
7575;SDS011;3829;50.798;4.358;2024-03-08T14:51:12;14.40;;;8.40;;
7575;SDS011;3829;50.798;4.358;2024-03-08T14:53:40;11.97;;;5.13;;